sensor_id;sensor_type;location;lat;lon;timestamp;temperature;humidity
20714;DHT22;10518;50.742;4.226;2023-07-28T00:00:32;19.30;99.90
20714;DHT22;10518;50.742;4.226;2023-07-28T00:02:58;19.50;99.90
20714;DHT22;10518;50.742;4.226;2023-07-28T00:05:23;19.50;99.90
20714;DHT22;10518;50.742;4.226;2023-07-28T00:07:49;19.40;99.90
20714;DHT22;10518;50.742;4.226;2023-07-28T00:10:14;19.60;99.90
20714;DHT22;10518;50.742;4.226;2023-07-28T00:12:40;19.50;99.90
20714;DHT22;10518;50.742;4.226;2023-07-28T00:15:06;19.50;99.90
20714;DHT22;10518;50.742;4.226;2023-07-28T00:17:31;19.40;99.90
20714;DHT22;10518;50.742;4.226;2023-07-28T00:19:57;19.40;99.90
20714;DHT22;10518;50.742;4.226;2023-07-28T00:22:22;19.70;99.90
20714;DHT22;10518;50.742;4.226;2023-07-28T00:24:48;19.70;99.90
20714;DHT22;10518;50.742;4.226;2023-07-28T00:27:13;19.60;99.90
20714;DHT22;10518;50.742;4.226;2023-07-28T00:29:41;19.60;99.90
20714;DHT22;10518;50.742;4.226;2023-07-28T00:32:07;19.70;99.90
20714;DHT22;10518;50.742;4.226;2023-07-28T00:34:32;19.70;99.90
20714;DHT22;10518;50.742;4.226;2023-07-28T00:36:58;19.70;99.90
20714;DHT22;10518;50.742;4.226;2023-07-28T00:39:23;19.60;99.90
20714;DHT22;10518;50.742;4.226;2023-07-28T00:41:49;19.80;99.90
20714;DHT22;10518;50.742;4.226;2023-07-28T00:44:15;19.70;99.90
20714;DHT22;10518;50.742;4.226;2023-07-28T00:46:42;19.90;99.90
20714;DHT22;10518;50.742;4.226;2023-07-28T00:49:08;19.80;99.90
20714;DHT22;10518;50.742;4.226;2023-07-28T00:51:35;19.70;99.90
20714;DHT22;10518;50.742;4.226;2023-07-28T00:54:02;19.80;99.90
20714;DHT22;10518;50.742;4.226;2023-07-28T00:56:27;19.80;99.90
20714;DHT22;10518;50.742;4.226;2023-07-28T00:58:53;19.70;99.90
20714;DHT22;10518;50.742;4.226;2023-07-28T01:01:19;19.60;99.90
20714;DHT22;10518;50.742;4.226;2023-07-28T01:03:45;19.70;99.90
20714;DHT22;10518;50.742;4.226;2023-07-28T01:06:26;19.80;99.90
20714;DHT22;10518;50.742;4.226;2023-07-28T01:09:10;19.80;99.90
20714;DHT22;10518;50.742;4.226;2023-07-28T01:11:37;19.80;99.90
20714;DHT22;10518;50.742;4.226;2023-07-28T01:14:02;19.80;99.90
20714;DHT22;10518;50.742;4.226;2023-07-28T01:16:28;19.70;99.90
20714;DHT22;10518;50.742;4.226;2023-07-28T01:18:53;19.70;99.90
20714;DHT22;10518;50.742;4.226;2023-07-28T01:21:22;19.80;99.90
20714;DHT22;10518;50.742;4.226;2023-07-28T01:23:59;19.90;99.90
20714;DHT22;10518;50.742;4.226;2023-07-28T01:26:34;19.90;99.90
20714;DHT22;10518;50.742;4.226;2023-07-28T01:29:00;19.80;99.90
20714;DHT22;10518;50.742;4.226;2023-07-28T01:31:27;19.90;99.90
20714;DHT22;10518;50.742;4.226;2023-07-28T01:33:53;19.90;99.90
20714;DHT22;10518;50.742;4.226;2023-07-28T01:36:18;19.90;99.90
20714;DHT22;10518;50.742;4.226;2023-07-28T01:38:44;19.80;99.90
20714;DHT22;10518;50.742;4.226;2023-07-28T01:41:09;19.80;99.90
20714;DHT22;10518;50.742;4.226;2023-07-28T01:43:35;19.80;99.90
20714;DHT22;10518;50.742;4.226;2023-07-28T01:46:00;19.80;99.90
20714;DHT22;10518;50.742;4.226;2023-07-28T01:48:26;19.80;99.90
20714;DHT22;10518;50.742;4.226;2023-07-28T01:50:52;19.70;99.90
20714;DHT22;10518;50.742;4.226;2023-07-28T01:53:17;19.80;99.90
20714;DHT22;10518;50.742;4.226;2023-07-28T01:55:43;19.90;99.90
20714;DHT22;10518;50.742;4.226;2023-07-28T01:58:09;19.90;99.90
20714;DHT22;10518;50.742;4.226;2023-07-28T02:00:35;19.90;99.90
20714;DHT22;10518;50.742;4.226;2023-07-28T02:03:00;19.90;99.90
20714;DHT22;10518;50.742;4.226;2023-07-28T02:05:28;19.80;99.90
20714;DHT22;10518;50.742;4.226;2023-07-28T02:07:54;19.80;99.90
20714;DHT22;10518;50.742;4.226;2023-07-28T02:10:22;19.90;99.90
20714;DHT22;10518;50.742;4.226;2023-07-28T02:12:49;19.90;99.90
20714;DHT22;10518;50.742;4.226;2023-07-28T02:15:14;19.90;99.90
20714;DHT22;10518;50.742;4.226;2023-07-28T02:17:40;19.90;99.90
20714;DHT22;10518;50.742;4.226;2023-07-28T02:20:06;19.90;99.90
20714;DHT22;10518;50.742;4.226;2023-07-28T02:22:36;19.90;99.90
20714;DHT22;10518;50.742;4.226;2023-07-28T02:25:01;19.80;99.90
20714;DHT22;10518;50.742;4.226;2023-07-28T02:27:27;19.60;99.90
20714;DHT22;10518;50.742;4.226;2023-07-28T02:29:53;19.60;99.90
20714;DHT22;10518;50.742;4.226;2023-07-28T02:32:19;19.60;99.90
20714;DHT22;10518;50.742;4.226;2023-07-28T02:34:45;19.70;99.90
20714;DHT22;10518;50.742;4.226;2023-07-28T02:37:10;19.80;99.90
20714;DHT22;10518;50.742;4.226;2023-07-28T02:39:36;19.80;99.90
20714;DHT22;10518;50.742;4.226;2023-07-28T02:42:01;19.90;99.90
20714;DHT22;10518;50.742;4.226;2023-07-28T02:44:27;19.80;99.90
20714;DHT22;10518;50.742;4.226;2023-07-28T02:46:52;19.90;99.90
20714;DHT22;10518;50.742;4.226;2023-07-28T02:49:18;19.90;99.90
20714;DHT22;10518;50.742;4.226;2023-07-28T02:51:43;20.00;99.90
20714;DHT22;10518;50.742;4.226;2023-07-28T02:54:09;20.10;99.90
20714;DHT22;10518;50.742;4.226;2023-07-28T02:56:35;19.90;99.90
20714;DHT22;10518;50.742;4.226;2023-07-28T02:59:03;19.80;99.90
20714;DHT22;10518;50.742;4.226;2023-07-28T03:01:30;19.80;99.90
20714;DHT22;10518;50.742;4.226;2023-07-28T03:03:59;19.70;99.90
20714;DHT22;10518;50.742;4.226;2023-07-28T03:06:25;19.70;99.90
20714;DHT22;10518;50.742;4.226;2023-07-28T03:08:50;19.90;99.90
20714;DHT22;10518;50.742;4.226;2023-07-28T03:11:16;19.70;99.90
20714;DHT22;10518;50.742;4.226;2023-07-28T03:13:41;19.70;99.90
20714;DHT22;10518;50.742;4.226;2023-07-28T03:16:07;19.70;99.90
20714;DHT22;10518;50.742;4.226;2023-07-28T03:18:32;19.70;99.90
20714;DHT22;10518;50.742;4.226;2023-07-28T03:20:58;19.80;99.90
20714;DHT22;10518;50.742;4.226;2023-07-28T03:23:23;19.60;99.90
20714;DHT22;10518;50.742;4.226;2023-07-28T03:25:49;19.60;99.90
20714;DHT22;10518;50.742;4.226;2023-07-28T03:28:15;19.50;99.90
20714;DHT22;10518;50.742;4.226;2023-07-28T03:30:40;19.80;99.90
20714;DHT22;10518;50.742;4.226;2023-07-28T03:33:06;19.70;99.90
20714;DHT22;10518;50.742;4.226;2023-07-28T03:35:31;19.80;99.90
20714;DHT22;10518;50.742;4.226;2023-07-28T03:37:57;19.70;99.90
20714;DHT22;10518;50.742;4.226;2023-07-28T03:40:22;19.70;99.90
20714;DHT22;10518;50.742;4.226;2023-07-28T03:42:48;19.90;99.90
20714;DHT22;10518;50.742;4.226;2023-07-28T03:45:14;19.80;99.90
20714;DHT22;10518;50.742;4.226;2023-07-28T03:47:39;19.60;99.90
20714;DHT22;10518;50.742;4.226;2023-07-28T03:50:05;19.70;99.90
20714;DHT22;10518;50.742;4.226;2023-07-28T03:52:31;19.70;99.90
20714;DHT22;10518;50.742;4.226;2023-07-28T03:54:56;19.50;99.90
20714;DHT22;10518;50.742;4.226;2023-07-28T03:57:22;19.50;99.90
20714;DHT22;10518;50.742;4.226;2023-07-28T03:59:48;19.50;99.90
20714;DHT22;10518;50.742;4.226;2023-07-28T04:02:13;19.60;99.90
20714;DHT22;10518;50.742;4.226;2023-07-28T04:04:39;19.70;99.90
20714;DHT22;10518;50.742;4.226;2023-07-28T04:07:04;19.80;99.90
20714;DHT22;10518;50.742;4.226;2023-07-28T04:09:30;19.80;99.90
20714;DHT22;10518;50.742;4.226;2023-07-28T04:11:56;19.80;99.90
20714;DHT22;10518;50.742;4.226;2023-07-28T04:14:21;19.60;99.90
20714;DHT22;10518;50.742;4.226;2023-07-28T04:16:47;19.70;99.90
20714;DHT22;10518;50.742;4.226;2023-07-28T04:19:13;19.90;99.90
20714;DHT22;10518;50.742;4.226;2023-07-28T04:21:38;20.00;99.90
20714;DHT22;10518;50.742;4.226;2023-07-28T04:24:06;19.80;99.90
20714;DHT22;10518;50.742;4.226;2023-07-28T04:26:32;19.70;99.90
20714;DHT22;10518;50.742;4.226;2023-07-28T04:28:58;19.60;99.90
20714;DHT22;10518;50.742;4.226;2023-07-28T04:31:23;19.60;99.90
20714;DHT22;10518;50.742;4.226;2023-07-28T04:33:49;19.60;99.90
20714;DHT22;10518;50.742;4.226;2023-07-28T04:36:14;19.60;99.90
20714;DHT22;10518;50.742;4.226;2023-07-28T04:38:40;19.70;99.90
20714;DHT22;10518;50.742;4.226;2023-07-28T04:41:06;19.80;99.90
20714;DHT22;10518;50.742;4.226;2023-07-28T04:43:31;19.70;99.90
20714;DHT22;10518;50.742;4.226;2023-07-28T04:45:57;19.80;99.90
20714;DHT22;10518;50.742;4.226;2023-07-28T04:48:22;19.90;99.90
20714;DHT22;10518;50.742;4.226;2023-07-28T04:50:48;19.80;99.90
20714;DHT22;10518;50.742;4.226;2023-07-28T04:53:14;19.70;99.90
20714;DHT22;10518;50.742;4.226;2023-07-28T04:55:39;19.70;99.90
20714;DHT22;10518;50.742;4.226;2023-07-28T04:58:05;19.80;99.90
20714;DHT22;10518;50.742;4.226;2023-07-28T05:00:30;19.80;99.90
20714;DHT22;10518;50.742;4.226;2023-07-28T05:02:56;19.70;99.90
20714;DHT22;10518;50.742;4.226;2023-07-28T05:05:22;19.80;99.90
20714;DHT22;10518;50.742;4.226;2023-07-28T05:07:47;20.00;99.90
20714;DHT22;10518;50.742;4.226;2023-07-28T05:10:13;20.10;99.90
20714;DHT22;10518;50.742;4.226;2023-07-28T05:12:39;19.90;99.90
20714;DHT22;10518;50.742;4.226;2023-07-28T05:15:05;20.00;99.90
20714;DHT22;10518;50.742;4.226;2023-07-28T05:17:31;19.90;99.90
20714;DHT22;10518;50.742;4.226;2023-07-28T05:19:56;19.80;99.90
20714;DHT22;10518;50.742;4.226;2023-07-28T05:22:22;20.10;99.90
20714;DHT22;10518;50.742;4.226;2023-07-28T05:24:47;20.20;99.90
20714;DHT22;10518;50.742;4.226;2023-07-28T05:27:13;20.20;99.90
20714;DHT22;10518;50.742;4.226;2023-07-28T05:29:39;20.20;99.90
20714;DHT22;10518;50.742;4.226;2023-07-28T05:32:05;20.10;99.90
20714;DHT22;10518;50.742;4.226;2023-07-28T05:34:31;20.00;99.90
20714;DHT22;10518;50.742;4.226;2023-07-28T05:36:56;20.10;99.90
20714;DHT22;10518;50.742;4.226;2023-07-28T05:39:22;20.20;99.90
20714;DHT22;10518;50.742;4.226;2023-07-28T05:41:48;20.20;99.90
20714;DHT22;10518;50.742;4.226;2023-07-28T05:44:14;20.20;99.90
20714;DHT22;10518;50.742;4.226;2023-07-28T05:46:39;20.00;99.90
20714;DHT22;10518;50.742;4.226;2023-07-28T05:49:05;20.00;99.90
20714;DHT22;10518;50.742;4.226;2023-07-28T05:51:31;20.00;99.90
20714;DHT22;10518;50.742;4.226;2023-07-28T05:53:56;20.10;99.90
20714;DHT22;10518;50.742;4.226;2023-07-28T05:56:22;20.30;99.90
20714;DHT22;10518;50.742;4.226;2023-07-28T05:58:48;20.50;99.90
20714;DHT22;10518;50.742;4.226;2023-07-28T06:01:14;20.50;99.90
20714;DHT22;10518;50.742;4.226;2023-07-28T06:03:40;20.50;99.90
20714;DHT22;10518;50.742;4.226;2023-07-28T06:06:05;20.60;99.90
20714;DHT22;10518;50.742;4.226;2023-07-28T06:08:31;20.50;99.90
20714;DHT22;10518;50.742;4.226;2023-07-28T06:10:57;20.40;99.90
20714;DHT22;10518;50.742;4.226;2023-07-28T06:13:22;20.50;99.90
20714;DHT22;10518;50.742;4.226;2023-07-28T06:15:48;20.40;99.90
20714;DHT22;10518;50.742;4.226;2023-07-28T06:18:13;20.50;99.90
20714;DHT22;10518;50.742;4.226;2023-07-28T06:20:45;20.60;99.90
20714;DHT22;10518;50.742;4.226;2023-07-28T06:23:10;20.50;99.90
20714;DHT22;10518;50.742;4.226;2023-07-28T06:25:36;20.50;99.90
20714;DHT22;10518;50.742;4.226;2023-07-28T06:28:07;20.60;99.90
20714;DHT22;10518;50.742;4.226;2023-07-28T06:30:33;20.60;99.90
20714;DHT22;10518;50.742;4.226;2023-07-28T06:32:58;20.80;99.90
20714;DHT22;10518;50.742;4.226;2023-07-28T06:35:24;20.90;99.90
20714;DHT22;10518;50.742;4.226;2023-07-28T06:37:50;21.00;99.90
20714;DHT22;10518;50.742;4.226;2023-07-28T06:40:15;21.10;99.90
20714;DHT22;10518;50.742;4.226;2023-07-28T06:42:41;21.10;99.90
20714;DHT22;10518;50.742;4.226;2023-07-28T06:45:07;21.10;99.90
20714;DHT22;10518;50.742;4.226;2023-07-28T06:47:32;21.20;99.90
20714;DHT22;10518;50.742;4.226;2023-07-28T06:49:58;21.40;99.90
20714;DHT22;10518;50.742;4.226;2023-07-28T06:52:23;21.30;99.90
20714;DHT22;10518;50.742;4.226;2023-07-28T06:54:49;21.30;99.90
20714;DHT22;10518;50.742;4.226;2023-07-28T06:57:15;21.40;99.90
20714;DHT22;10518;50.742;4.226;2023-07-28T06:59:41;21.50;99.90
20714;DHT22;10518;50.742;4.226;2023-07-28T07:02:07;21.60;99.90
20714;DHT22;10518;50.742;4.226;2023-07-28T07:04:33;21.80;99.90
20714;DHT22;10518;50.742;4.226;2023-07-28T07:06:59;21.90;99.90
20714;DHT22;10518;50.742;4.226;2023-07-28T07:09:24;22.00;99.90
20714;DHT22;10518;50.742;4.226;2023-07-28T07:11:50;22.00;99.90
20714;DHT22;10518;50.742;4.226;2023-07-28T07:14:16;21.70;99.90
20714;DHT22;10518;50.742;4.226;2023-07-28T07:16:42;21.80;99.90
20714;DHT22;10518;50.742;4.226;2023-07-28T07:19:08;21.70;99.90
20714;DHT22;10518;50.742;4.226;2023-07-28T07:21:34;21.60;99.90
20714;DHT22;10518;50.742;4.226;2023-07-28T07:24:00;21.70;99.90
20714;DHT22;10518;50.742;4.226;2023-07-28T07:26:27;21.80;99.90
20714;DHT22;10518;50.742;4.226;2023-07-28T07:28:53;21.80;99.90
20714;DHT22;10518;50.742;4.226;2023-07-28T07:31:19;21.60;99.90
20714;DHT22;10518;50.742;4.226;2023-07-28T07:33:44;21.70;99.90
20714;DHT22;10518;50.742;4.226;2023-07-28T07:36:14;21.60;99.90
20714;DHT22;10518;50.742;4.226;2023-07-28T07:38:40;21.50;99.90
20714;DHT22;10518;50.742;4.226;2023-07-28T07:41:06;21.80;99.90
20714;DHT22;10518;50.742;4.226;2023-07-28T07:43:33;21.80;99.90
20714;DHT22;10518;50.742;4.226;2023-07-28T07:45:58;22.10;99.90
20714;DHT22;10518;50.742;4.226;2023-07-28T07:48:24;22.10;99.90
20714;DHT22;10518;50.742;4.226;2023-07-28T07:50:51;22.10;99.90
20714;DHT22;10518;50.742;4.226;2023-07-28T07:53:16;22.30;99.90
20714;DHT22;10518;50.742;4.226;2023-07-28T07:55:42;22.30;99.90
20714;DHT22;10518;50.742;4.226;2023-07-28T07:58:08;22.60;99.90
20714;DHT22;10518;50.742;4.226;2023-07-28T08:00:33;22.90;99.90
20714;DHT22;10518;50.742;4.226;2023-07-28T08:02:59;23.00;99.90
20714;DHT22;10518;50.742;4.226;2023-07-28T08:05:25;23.00;99.90
20714;DHT22;10518;50.742;4.226;2023-07-28T08:07:50;23.10;99.90
20714;DHT22;10518;50.742;4.226;2023-07-28T08:10:16;23.00;99.90
20714;DHT22;10518;50.742;4.226;2023-07-28T08:12:43;23.20;99.90
20714;DHT22;10518;50.742;4.226;2023-07-28T08:15:10;23.20;99.90
20714;DHT22;10518;50.742;4.226;2023-07-28T08:17:35;23.40;99.90
20714;DHT22;10518;50.742;4.226;2023-07-28T08:20:02;23.50;99.90
20714;DHT22;10518;50.742;4.226;2023-07-28T08:22:28;23.40;99.90
20714;DHT22;10518;50.742;4.226;2023-07-28T08:24:54;23.50;99.90
20714;DHT22;10518;50.742;4.226;2023-07-28T08:27:20;23.30;99.90
20714;DHT22;10518;50.742;4.226;2023-07-28T08:29:45;23.00;99.90
20714;DHT22;10518;50.742;4.226;2023-07-28T08:32:11;22.90;99.90
20714;DHT22;10518;50.742;4.226;2023-07-28T08:34:37;22.70;99.90
20714;DHT22;10518;50.742;4.226;2023-07-28T08:37:02;22.80;99.90
20714;DHT22;10518;50.742;4.226;2023-07-28T08:39:28;23.10;99.90
20714;DHT22;10518;50.742;4.226;2023-07-28T08:42:03;23.30;99.90
20714;DHT22;10518;50.742;4.226;2023-07-28T08:44:31;23.30;99.90
20714;DHT22;10518;50.742;4.226;2023-07-28T08:46:58;23.30;99.90
20714;DHT22;10518;50.742;4.226;2023-07-28T08:49:24;23.10;99.90
20714;DHT22;10518;50.742;4.226;2023-07-28T08:51:50;23.30;99.90
20714;DHT22;10518;50.742;4.226;2023-07-28T08:54:16;23.30;99.90
20714;DHT22;10518;50.742;4.226;2023-07-28T08:56:45;23.40;99.90
20714;DHT22;10518;50.742;4.226;2023-07-28T08:59:10;23.30;99.90
20714;DHT22;10518;50.742;4.226;2023-07-28T09:01:39;23.50;99.90
20714;DHT22;10518;50.742;4.226;2023-07-28T09:04:10;23.50;99.90
20714;DHT22;10518;50.742;4.226;2023-07-28T09:06:36;23.40;99.90
20714;DHT22;10518;50.742;4.226;2023-07-28T09:09:02;23.20;99.90
20714;DHT22;10518;50.742;4.226;2023-07-28T09:11:31;23.10;99.90
20714;DHT22;10518;50.742;4.226;2023-07-28T09:13:56;23.00;99.90
20714;DHT22;10518;50.742;4.226;2023-07-28T09:16:25;22.80;99.90
20714;DHT22;10518;50.742;4.226;2023-07-28T09:18:51;22.80;99.90
20714;DHT22;10518;50.742;4.226;2023-07-28T09:21:20;22.70;99.90
20714;DHT22;10518;50.742;4.226;2023-07-28T09:23:49;22.70;99.90
20714;DHT22;10518;50.742;4.226;2023-07-28T09:26:16;22.50;99.90
20714;DHT22;10518;50.742;4.226;2023-07-28T09:28:42;22.70;99.90
20714;DHT22;10518;50.742;4.226;2023-07-28T09:31:08;23.00;99.90
20714;DHT22;10518;50.742;4.226;2023-07-28T09:33:36;23.10;99.90
20714;DHT22;10518;50.742;4.226;2023-07-28T09:36:13;23.30;99.90
20714;DHT22;10518;50.742;4.226;2023-07-28T09:38:41;23.40;99.90
20714;DHT22;10518;50.742;4.226;2023-07-28T09:41:09;23.60;99.90
20714;DHT22;10518;50.742;4.226;2023-07-28T09:43:37;23.80;99.90
20714;DHT22;10518;50.742;4.226;2023-07-28T09:46:04;23.90;99.90
20714;DHT22;10518;50.742;4.226;2023-07-28T09:48:32;24.00;99.90
20714;DHT22;10518;50.742;4.226;2023-07-28T09:51:05;24.10;99.90
20714;DHT22;10518;50.742;4.226;2023-07-28T09:53:34;24.10;99.90
20714;DHT22;10518;50.742;4.226;2023-07-28T09:56:01;24.10;99.90
20714;DHT22;10518;50.742;4.226;2023-07-28T09:58:32;24.20;99.90
20714;DHT22;10518;50.742;4.226;2023-07-28T10:00:59;24.20;99.90
20714;DHT22;10518;50.742;4.226;2023-07-28T10:03:26;24.10;99.90
20714;DHT22;10518;50.742;4.226;2023-07-28T10:05:51;24.10;99.90
20714;DHT22;10518;50.742;4.226;2023-07-28T10:08:18;24.00;99.90
20714;DHT22;10518;50.742;4.226;2023-07-28T10:10:46;23.90;99.90
20714;DHT22;10518;50.742;4.226;2023-07-28T10:13:20;23.80;99.90
20714;DHT22;10518;50.742;4.226;2023-07-28T10:15:46;23.60;99.90
20714;DHT22;10518;50.742;4.226;2023-07-28T10:18:13;23.50;99.90
20714;DHT22;10518;50.742;4.226;2023-07-28T10:20:40;23.50;99.90
20714;DHT22;10518;50.742;4.226;2023-07-28T10:23:12;23.70;99.90
20714;DHT22;10518;50.742;4.226;2023-07-28T10:25:38;24.00;99.90
20714;DHT22;10518;50.742;4.226;2023-07-28T10:28:05;23.90;99.90
20714;DHT22;10518;50.742;4.226;2023-07-28T10:30:38;23.80;99.90
20714;DHT22;10518;50.742;4.226;2023-07-28T10:33:27;23.50;99.90
20714;DHT22;10518;50.742;4.226;2023-07-28T10:35:53;23.10;99.90
20714;DHT22;10518;50.742;4.226;2023-07-28T10:38:33;22.80;99.90
20714;DHT22;10518;50.742;4.226;2023-07-28T10:43:32;22.80;99.90
20714;DHT22;10518;50.742;4.226;2023-07-28T10:45:59;22.90;99.90
20714;DHT22;10518;50.742;4.226;2023-07-28T10:48:25;23.10;99.90
20714;DHT22;10518;50.742;4.226;2023-07-28T10:50:51;23.30;99.90
20714;DHT22;10518;50.742;4.226;2023-07-28T10:53:17;23.50;99.90
20714;DHT22;10518;50.742;4.226;2023-07-28T10:55:42;23.70;99.90
20714;DHT22;10518;50.742;4.226;2023-07-28T10:58:08;23.80;99.90
20714;DHT22;10518;50.742;4.226;2023-07-28T11:00:33;23.70;99.90
20714;DHT22;10518;50.742;4.226;2023-07-28T11:02:59;23.90;99.90
20714;DHT22;10518;50.742;4.226;2023-07-28T11:05:26;23.90;99.90
20714;DHT22;10518;50.742;4.226;2023-07-28T11:07:55;24.00;99.90
20714;DHT22;10518;50.742;4.226;2023-07-28T11:10:21;24.10;99.90
20714;DHT22;10518;50.742;4.226;2023-07-28T11:12:49;24.10;99.90
20714;DHT22;10518;50.742;4.226;2023-07-28T11:15:16;24.10;99.90
20714;DHT22;10518;50.742;4.226;2023-07-28T11:17:47;24.00;99.90
20714;DHT22;10518;50.742;4.226;2023-07-28T11:23:07;23.90;99.90
20714;DHT22;10518;50.742;4.226;2023-07-28T11:25:34;23.90;99.90
20714;DHT22;10518;50.742;4.226;2023-07-28T11:28:03;24.10;99.90
20714;DHT22;10518;50.742;4.226;2023-07-28T11:30:31;24.20;99.90
20714;DHT22;10518;50.742;4.226;2023-07-28T11:32:57;24.40;99.90
20714;DHT22;10518;50.742;4.226;2023-07-28T11:35:23;24.40;99.90
20714;DHT22;10518;50.742;4.226;2023-07-28T11:37:50;24.60;99.90
20714;DHT22;10518;50.742;4.226;2023-07-28T11:40:18;24.70;99.90
20714;DHT22;10518;50.742;4.226;2023-07-28T11:42:46;24.70;99.90
20714;DHT22;10518;50.742;4.226;2023-07-28T11:45:14;24.70;99.90
20714;DHT22;10518;50.742;4.226;2023-07-28T11:48:01;24.70;99.90
20714;DHT22;10518;50.742;4.226;2023-07-28T11:50:29;24.70;99.90
20714;DHT22;10518;50.742;4.226;2023-07-28T11:52:57;24.80;99.90
20714;DHT22;10518;50.742;4.226;2023-07-28T11:55:23;24.70;99.90
20714;DHT22;10518;50.742;4.226;2023-07-28T11:57:51;24.60;99.90
20714;DHT22;10518;50.742;4.226;2023-07-28T12:00:17;24.40;99.90
20714;DHT22;10518;50.742;4.226;2023-07-28T12:02:43;24.30;99.90
20714;DHT22;10518;50.742;4.226;2023-07-28T12:05:13;24.30;99.90
20714;DHT22;10518;50.742;4.226;2023-07-28T12:07:39;24.30;99.90
20714;DHT22;10518;50.742;4.226;2023-07-28T12:10:06;24.30;99.90
20714;DHT22;10518;50.742;4.226;2023-07-28T12:12:41;24.30;99.90
20714;DHT22;10518;50.742;4.226;2023-07-28T12:20:36;24.50;99.90
20714;DHT22;10518;50.742;4.226;2023-07-28T12:23:03;24.50;99.90
20714;DHT22;10518;50.742;4.226;2023-07-28T12:25:29;24.70;99.90
20714;DHT22;10518;50.742;4.226;2023-07-28T12:27:55;24.70;99.90
20714;DHT22;10518;50.742;4.226;2023-07-28T12:30:21;24.70;99.90
20714;DHT22;10518;50.742;4.226;2023-07-28T12:32:47;24.80;99.90
20714;DHT22;10518;50.742;4.226;2023-07-28T12:35:12;24.70;99.90
20714;DHT22;10518;50.742;4.226;2023-07-28T12:37:38;25.00;99.90
20714;DHT22;10518;50.742;4.226;2023-07-28T12:40:04;25.10;99.90
20714;DHT22;10518;50.742;4.226;2023-07-28T12:42:31;25.10;99.90
20714;DHT22;10518;50.742;4.226;2023-07-28T12:44:57;25.10;99.90
20714;DHT22;10518;50.742;4.226;2023-07-28T12:47:23;25.10;99.90
20714;DHT22;10518;50.742;4.226;2023-07-28T12:49:48;25.00;99.90
20714;DHT22;10518;50.742;4.226;2023-07-28T12:52:14;25.00;99.90
20714;DHT22;10518;50.742;4.226;2023-07-28T12:54:40;25.00;99.90
20714;DHT22;10518;50.742;4.226;2023-07-28T12:57:08;25.00;99.90
20714;DHT22;10518;50.742;4.226;2023-07-28T12:59:36;25.00;99.90
20714;DHT22;10518;50.742;4.226;2023-07-28T13:02:01;25.00;99.90
20714;DHT22;10518;50.742;4.226;2023-07-28T13:04:27;25.10;99.90
20714;DHT22;10518;50.742;4.226;2023-07-28T13:06:52;25.00;99.90
20714;DHT22;10518;50.742;4.226;2023-07-28T13:09:18;24.90;99.90
20714;DHT22;10518;50.742;4.226;2023-07-28T13:11:43;24.80;99.90
20714;DHT22;10518;50.742;4.226;2023-07-28T13:14:09;24.80;99.90
20714;DHT22;10518;50.742;4.226;2023-07-28T13:16:35;24.80;99.90
20714;DHT22;10518;50.742;4.226;2023-07-28T13:19:03;24.80;99.90
20714;DHT22;10518;50.742;4.226;2023-07-28T13:21:29;25.10;99.90
20714;DHT22;10518;50.742;4.226;2023-07-28T13:23:54;25.30;99.90
20714;DHT22;10518;50.742;4.226;2023-07-28T13:26:20;25.50;99.90
20714;DHT22;10518;50.742;4.226;2023-07-28T13:28:45;25.60;99.90
20714;DHT22;10518;50.742;4.226;2023-07-28T13:31:12;25.80;99.90
20714;DHT22;10518;50.742;4.226;2023-07-28T13:33:38;25.60;99.90
20714;DHT22;10518;50.742;4.226;2023-07-28T13:36:04;25.70;99.90
20714;DHT22;10518;50.742;4.226;2023-07-28T13:38:32;25.80;99.90
20714;DHT22;10518;50.742;4.226;2023-07-28T13:40:58;25.90;99.90
20714;DHT22;10518;50.742;4.226;2023-07-28T13:43:23;25.80;99.90
20714;DHT22;10518;50.742;4.226;2023-07-28T13:45:49;25.80;99.90
20714;DHT22;10518;50.742;4.226;2023-07-28T13:48:15;25.80;99.90
20714;DHT22;10518;50.742;4.226;2023-07-28T13:50:40;25.80;99.90
20714;DHT22;10518;50.742;4.226;2023-07-28T13:53:06;25.90;99.90
20714;DHT22;10518;50.742;4.226;2023-07-28T13:55:32;26.00;99.90
20714;DHT22;10518;50.742;4.226;2023-07-28T13:57:57;26.20;99.90
20714;DHT22;10518;50.742;4.226;2023-07-28T14:00:23;26.40;99.90
20714;DHT22;10518;50.742;4.226;2023-07-28T14:02:48;26.30;99.90
20714;DHT22;10518;50.742;4.226;2023-07-28T14:05:14;26.40;99.90
20714;DHT22;10518;50.742;4.226;2023-07-28T14:07:39;26.40;99.90
20714;DHT22;10518;50.742;4.226;2023-07-28T14:10:05;26.50;99.90
20714;DHT22;10518;50.742;4.226;2023-07-28T14:12:31;26.50;99.90
20714;DHT22;10518;50.742;4.226;2023-07-28T14:14:57;26.70;99.90
20714;DHT22;10518;50.742;4.226;2023-07-28T14:17:22;26.90;99.90
20714;DHT22;10518;50.742;4.226;2023-07-28T14:19:48;26.90;99.90
20714;DHT22;10518;50.742;4.226;2023-07-28T14:22:13;26.80;99.90
20714;DHT22;10518;50.742;4.226;2023-07-28T14:24:39;26.80;99.90
20714;DHT22;10518;50.742;4.226;2023-07-28T14:27:05;26.50;99.90
20714;DHT22;10518;50.742;4.226;2023-07-28T14:29:30;26.20;99.90
20714;DHT22;10518;50.742;4.226;2023-07-28T14:31:56;26.20;99.90
20714;DHT22;10518;50.742;4.226;2023-07-28T14:34:22;26.40;99.90
20714;DHT22;10518;50.742;4.226;2023-07-28T14:36:47;26.20;99.90
20714;DHT22;10518;50.742;4.226;2023-07-28T14:39:13;26.20;99.90
20714;DHT22;10518;50.742;4.226;2023-07-28T14:41:39;26.30;99.90
20714;DHT22;10518;50.742;4.226;2023-07-28T14:44:04;26.00;99.90
20714;DHT22;10518;50.742;4.226;2023-07-28T14:46:30;26.00;99.90
20714;DHT22;10518;50.742;4.226;2023-07-28T14:48:55;25.90;99.90
20714;DHT22;10518;50.742;4.226;2023-07-28T14:51:21;26.00;99.90
20714;DHT22;10518;50.742;4.226;2023-07-28T14:53:48;26.20;99.90
20714;DHT22;10518;50.742;4.226;2023-07-28T14:56:15;26.20;99.90
20714;DHT22;10518;50.742;4.226;2023-07-28T14:58:41;26.20;99.90
20714;DHT22;10518;50.742;4.226;2023-07-28T15:01:07;26.00;99.90
20714;DHT22;10518;50.742;4.226;2023-07-28T15:03:33;26.20;99.90
20714;DHT22;10518;50.742;4.226;2023-07-28T15:06:00;26.40;99.90
20714;DHT22;10518;50.742;4.226;2023-07-28T15:08:27;26.30;99.90
20714;DHT22;10518;50.742;4.226;2023-07-28T15:10:52;26.10;99.90
20714;DHT22;10518;50.742;4.226;2023-07-28T15:13:19;26.10;99.90
20714;DHT22;10518;50.742;4.226;2023-07-28T15:15:45;26.30;99.90
20714;DHT22;10518;50.742;4.226;2023-07-28T15:18:11;26.40;99.90
20714;DHT22;10518;50.742;4.226;2023-07-28T15:20:40;26.80;99.90
20714;DHT22;10518;50.742;4.226;2023-07-28T15:23:05;26.90;99.90
20714;DHT22;10518;50.742;4.226;2023-07-28T15:25:31;26.70;99.90
20714;DHT22;10518;50.742;4.226;2023-07-28T15:27:57;26.90;99.90
20714;DHT22;10518;50.742;4.226;2023-07-28T15:30:22;27.00;99.90
20714;DHT22;10518;50.742;4.226;2023-07-28T15:32:48;27.10;99.90
20714;DHT22;10518;50.742;4.226;2023-07-28T15:35:14;27.20;99.90